Malahat, Canada
Current Conditions -  °F | °C
As of 8:00 AM on Sunday 21 Dec 2014 (Local Time) from CYYJ Reporting Station
Broken Clouds Broken Clouds  
Wind Chill: 48°   Ceiling: 21000
Heat Index: 48°   Visibility: 20mi
Dew Point: 41°   Wind: 3mph
Humidity: 76%   Direction: 200°SSW
Pressure: 29.81"   Gusts: NA
Location:  48.56°N, 123.56°W
Report Text: CYYJ 211600Z 20003KT 160V300 20SM FEW040 BKN210 09/05 A2981 RMK SC1CC7 SC TR PRESRR SLP094
Loading
Personal Weather Stations






























Interactive Weather Map New forecast layout! Learn more

10-Day Weather Forecast

Advertisements
Track Severe Weather on mobile